Boneville, GA

01:57 AM EDT del 01 Ottobre 2014 (GMT -0400)
Thomson-McDuffie County | Change Station
CLOSE
Current Station
Aeroporto
Location: Thomson,
Altitudine: 499 ft
Stazioni meteo nelle vicinanze

Alt. 499 ft 33.53 °N, 82.52 °W | Updated 22 minutes ago

Sereno
Sereno
63 °F
Sembra 63 °F
N
0
Vento Variabile Vento da Nord

Oggi
Massima -- | Minima -- °F
--% Possibilità di precip.
Ieri
Massima -- | Minima -- °F
Precip. -- in
7:24 AM 7:14 PM
Luna crescente, 44% visible
Pressione 29.97 in
Visibilità 7.0 miglia
Nuvole Sereno
Punto di rugiada 63 °F
Umidità 100%
Piovosità 0.00 in
Spessore del manto nevoso Non disponibile.
Raggi UV 0 fuori da 12
Polline 5.70 fuori da 12
PM2.5 Buono
Flu Activity Non disponibile.
METAR KHQU 010535Z AUTO 00000KT 7SM CLR 17/17 A2997 RMK AO1 T01720172

More Conditions Fewer Conditions

Pressione 29.97 in
Visibilità 7.0 miglia
Nuvole Sereno
Punto di rugiada 63 °F
Umidità 100%
Piovosità 0.00 in
Spessore del manto nevoso Non disponibile.
Raggi UV 0 fuori da 12
Polline 5.70 fuori da 12
PM2.5 Buono
Flu Activity Non disponibile.
METAR KHQU 010535Z AUTO 00000KT 7SM CLR 17/17 A2997 RMK AO1 T01720172

More Conditions Fewer Conditions

10-Day Weather Forecast

Almanac

Astronomia

Oct. 01, 2014 Alba Tramonto
Ora attuale 07:24 EDT 19:14 EDT
Crepuscolo civile 06:59 EDT 19:39 EDT
Crepuscolo nautico 06:30 EDT 20:08 EDT
Crepuscolo astronomico 06:01 EDT 20:36 EDT
Luna 14:11 EDT Nessun tramonto lunare
Estensione della luce visibile 12h 39m
Lunghezza del giorno
11h 50m
Tomorrow will be 2m 3s shorter.
Luna crescente, 44% of the Moon is Illuminated
Oggi
Luna crescente
Ott 1
Primo quarto
Ott 8
Luna piena
Ott 15
Ultimo quarto
Ott 23
Nuovo

Gli estremi di oggi

State Highs State Lows

Community

WunderPhotos

Upload Photos

1,757,875 foto caricate!

Nearby

Qualità dell'aria

  Qualità dell'aria Indice AQ Inquinante
Ieri Buono
OZONE
Ieri Buono
PM2.5
Attuale Buono
PM2.5

Profondità neve

Stazione Profondità Altitudine
Non sono state evidenziate nuove nevicate

Attività sismica

Città  Distanza Mag. Data & Ora
Non sono state riportate attività sismiche nelle vicinanze.
Minimo Magnitudo Mostrato è 2.5.

Temperature delle acque costiere

Località Temperatura
Nessun dato dalle stazioni

Stazioni meteo nelle vicinanze